Time;durP1;ratioP1;P1;durP2;ratioP2;P2;SDS_P1;SDS_P2;PMS_P1;PMS_P2;Temp;Humidity;BMP_temperature;BMP_pressure;BME280_temperature;BME280_humidity;BME280_pressure;Samples;Min_cycle;Max_cycle;Signal;HPM_P1;HPM_P2
2024/03/22 00:00:50;;;;;;;13.07;8.93;;;7.10;99.90;;;-141.84;98.28;100065.22;5093564;28;20223;-62
2024/03/22 00:03:16;;;;;;;12.43;9.10;;;7.10;99.90;;;-141.84;97.80;99268.97;5094108;28;20272;-60
2024/03/22 00:05:43;;;;;;;12.93;9.40;;;7.10;99.90;;;-141.84;97.62;98472.84;5091820;28;20596;-60
2024/03/22 00:08:10;;;;;;;12.23;9.17;;;7.10;99.90;;;-141.84;98.19;99534.38;5093818;28;20229;-61
2024/03/22 00:10:38;;;;;;;12.67;9.70;;;7.00;99.90;;;-141.84;98.71;100861.66;5094356;28;20245;-61
2024/03/22 00:13:05;;;;;;;13.37;10.53;;;7.00;99.90;;;-141.84;99.05;101127.16;5091883;28;20227;-61
2024/03/22 00:15:32;;;;;;;15.07;10.83;;;7.00;99.90;;;-141.84;99.70;102455.00;5093432;28;20470;-60
2024/03/22 00:17:59;;;;;;;14.93;10.90;;;6.90;99.90;;;-141.84;99.91;103251.88;5093754;28;20223;-60
2024/03/22 00:20:25;;;;;;;16.07;10.63;;;6.90;99.90;;;-141.84;100.00;104048.94;5090579;28;20585;-61
2024/03/22 00:22:52;;;;;;;12.57;9.73;;;6.90;99.90;;;-141.84;100.00;104580.41;5094096;28;20206;-60
2024/03/22 00:25:18;;;;;;;13.53;9.70;;;7.00;99.90;;;-141.84;100.00;105377.72;5090426;28;20223;-61
2024/03/22 00:27:47;;;;;;;14.33;10.03;;;6.90;99.90;;;-141.84;100.00;106441.06;5093286;28;20224;-60
2024/03/22 00:30:15;;;;;;;13.57;9.50;;;6.90;99.90;;;-141.84;99.64;103517.56;5092638;28;20272;-61
2024/03/22 00:32:44;;;;;;;14.67;9.87;;;6.90;99.90;;;-141.84;98.68;100596.16;5085081;28;20227;-61
2024/03/22 00:35:10;;;;;;;13.77;9.37;;;6.90;99.90;;;-141.84;98.64;100861.66;5092417;28;20216;-60
2024/03/22 00:37:37;;;;;;;14.20;9.63;;;6.90;99.90;;;-141.84;98.78;100596.16;5093763;28;20621;-60
2024/03/22 00:40:05;;;;;;;13.67;10.20;;;6.90;99.90;;;-141.84;98.30;99534.38;5093017;28;20215;-61
2024/03/22 00:42:33;;;;;;;13.17;9.87;;;6.90;99.90;;;-141.84;98.88;100861.66;5090413;28;20258;-61
2024/03/22 00:45:00;;;;;;;13.90;9.90;;;6.90;99.90;;;-141.84;99.19;101392.69;5091988;28;20281;-60
2024/03/22 00:47:28;;;;;;;14.00;9.37;;;6.90;99.90;;;-141.84;100.00;103517.56;5092798;28;20214;-62
2024/03/22 00:49:54;;;;;;;14.33;9.80;;;6.90;99.90;;;-141.84;99.50;102455.00;5089869;28;20514;-60
2024/03/22 00:52:21;;;;;;;16.93;10.63;;;6.90;99.90;;;-141.84;99.27;102189.38;5089521;28;20227;-61
2024/03/22 00:54:48;;;;;;;14.00;10.57;;;6.90;99.90;;;-141.84;100.00;103783.25;5092421;28;20284;-63
2024/03/22 00:57:15;;;;;;;17.07;11.00;;;6.90;99.90;;;-141.84;98.90;102189.38;5092636;28;20226;-61
2024/03/22 00:59:41;;;;;;;16.77;10.43;;;7.00;99.90;;;-141.84;98.06;99003.56;5092464;28;20223;-61
2024/03/22 01:02:10;;;;;;;15.63;10.37;;;7.00;99.90;;;-141.84;99.21;101923.81;5092200;28;20549;-60
2024/03/22 01:04:36;;;;;;;16.27;10.90;;;7.00;99.90;;;-141.84;97.76;98738.19;5091237;28;20195;-62
2024/03/22 01:07:03;;;;;;;15.90;10.73;;;7.00;99.90;;;-141.84;99.26;101923.81;5092229;28;20234;-62
2024/03/22 01:09:30;;;;;;;17.47;11.60;;;6.90;99.90;;;-141.84;99.95;103517.56;5092397;28;20264;-63
2024/03/22 01:11:57;;;;;;;17.67;11.53;;;7.00;99.90;;;-141.84;100.00;104846.16;5091110;28;20227;-62
2024/03/22 01:14:23;;;;;;;17.70;11.77;;;6.90;99.90;;;-141.84;99.36;103251.88;5083175;28;20231;-64
2024/03/22 01:16:50;;;;;;;18.40;11.20;;;7.00;99.90;;;-141.84;98.21;100065.22;5081598;28;20203;-60
2024/03/22 01:19:18;;;;;;;17.47;11.97;;;7.00;99.90;;;-141.84;99.00;101392.69;5080808;28;20224;-60
2024/03/22 01:21:45;;;;;;;17.23;11.77;;;7.00;99.90;;;-141.84;97.36;100065.22;5082180;28;20234;-63
2024/03/22 01:24:12;;;;;;;18.57;11.93;;;7.00;99.90;;;-141.84;94.77;92904.41;5080743;28;20242;-63
2024/03/22 01:26:39;;;;;;;15.97;11.50;;;7.10;99.90;;;-141.84;92.02;83376.34;5080413;28;20702;-61
2024/03/22 01:29:05;;;;;;;15.80;10.93;;;7.30;99.90;;;-141.84;93.13;87608.25;5080342;28;20197;-60
2024/03/22 01:31:33;;;;;;;16.73;12.03;;;7.30;99.90;;;-141.84;94.30;89461.13;5100465;28;20210;-60
2024/03/22 01:33:59;;;;;;;20.13;12.80;;;7.30;99.90;;;-141.84;96.44;95555.09;5083145;28;20640;-61
2024/03/22 01:36:28;;;;;;;19.40;12.53;;;7.30;99.90;;;-141.84;94.29;90785.09;5083085;28;20219;-61
2024/03/22 01:38:54;;;;;;;19.43;13.17;;;7.30;99.90;;;-141.84;93.51;87608.25;5080495;28;20231;-61
2024/03/22 01:41:21;;;;;;;21.73;13.57;;;7.40;99.90;;;-141.84;94.80;91049.97;5080591;28;20235;-63
2024/03/22 01:43:47;;;;;;;21.40;13.97;;;7.40;99.90;;;-141.84;94.67;93434.41;5081135;28;20200;-62
2024/03/22 01:46:16;;;;;;;23.40;13.70;;;7.40;99.90;;;-141.84;95.29;93169.38;5079764;28;20496;-61
2024/03/22 01:48:42;;;;;;;21.50;12.53;;;7.40;99.90;;;-141.84;96.98;97146.31;5080343;28;20224;-60
2024/03/22 01:51:10;;;;;;;18.13;12.37;;;7.40;99.90;;;-141.84;97.83;99534.38;5080626;28;20593;-61
2024/03/22 01:53:38;;;;;;;20.87;13.60;;;7.30;99.90;;;-141.84;97.35;98207.50;5080626;28;20220;-61
2024/03/22 01:56:08;;;;;;;19.37;12.80;;;7.30;99.90;;;-141.84;98.44;100596.16;5083644;28;20210;-60
2024/03/22 01:58:35;;;;;;;19.30;13.03;;;7.30;99.90;;;-141.84;97.62;99268.97;5083187;28;20705;-61
2024/03/22 02:01:02;;;;;;;19.00;13.00;;;7.30;99.90;;;-141.84;93.67;89725.88;5081083;28;20224;-62
2024/03/22 02:03:29;;;;;;;20.37;12.23;;;7.40;99.90;;;-141.84;94.17;89461.13;5080283;28;20711;-60
2024/03/22 02:05:56;;;;;;;20.80;13.03;;;7.40;99.90;;;-141.84;96.01;94229.53;5080019;28;20251;-62
2024/03/22 02:08:23;;;;;;;19.73;12.90;;;7.40;99.90;;;-141.84;97.05;96881.06;5075011;28;20226;-61
2024/03/22 02:10:52;;;;;;;22.80;14.20;;;7.30;99.90;;;-141.84;97.50;98738.19;5083654;28;20203;-61
2024/03/22 02:13:18;;;;;;;20.83;13.07;;;7.30;99.90;;;-141.84;96.75;97411.59;5081941;28;20242;-60
2024/03/22 02:15:46;;;;;;;22.40;13.17;;;7.30;99.90;;;-141.84;97.12;97676.88;5078853;28;20212;-61
2024/03/22 02:18:12;;;;;;;22.13;12.73;;;7.30;99.90;;;-141.84;96.93;97676.88;5077709;28;20211;-60
2024/03/22 02:20:39;;;;;;;21.00;13.07;;;7.40;99.90;;;-141.84;93.82;90255.47;5082496;28;20219;-62
2024/03/22 02:23:05;;;;;;;18.67;12.30;;;7.40;99.90;;;-141.84;92.85;86549.84;5082591;28;20745;-61
2024/03/22 02:25:34;;;;;;;18.60;12.27;;;7.40;99.90;;;-141.84;88.83;70970.84;5083707;28;20192;-61
2024/03/22 02:28:00;;;;;;;17.87;12.00;;;7.40;99.90;;;-141.84;88.90;72288.75;5082378;28;20264;-60
2024/03/22 02:30:28;;;;;;;17.57;12.43;;;7.50;99.90;;;-141.84;87.41;64914.06;5083113;28;20226;-61
2024/03/22 02:32:54;;;;;;;16.80;11.73;;;7.50;99.90;;;-141.84;88.19;67283.00;5079823;28;20409;-60
2024/03/22 02:35:21;;;;;;;19.40;12.17;;;7.50;99.90;;;-141.84;85.33;54140.00;5079445;28;20224;-61
2024/03/22 02:37:47;;;;;;;18.60;11.27;;;7.60;99.90;;;-141.84;84.14;46013.16;5082699;28;20260;-60
2024/03/22 02:40:15;;;;;;;17.93;11.47;;;7.60;99.90;;;-141.84;85.13;51516.59;5082168;28;20219;-60
2024/03/22 02:42:42;;;;;;;15.63;11.67;;;7.70;99.90;;;-141.84;85.83;55714.84;5081952;28;20226;-60
2024/03/22 02:45:10;;;;;;;19.30;12.40;;;7.70;99.90;;;-141.84;86.75;62283.53;5082004;28;20276;-60
2024/03/22 02:47:36;;;;;;;17.67;11.40;;;7.70;99.90;;;-141.84;85.89;57815.66;5081987;28;20766;-60
2024/03/22 02:50:04;;;;;;;17.23;12.00;;;7.80;99.90;;;-141.84;86.90;62546.50;5081963;28;20204;-62
2024/03/22 02:52:30;;;;;;;16.93;10.80;;;7.70;99.90;;;-141.84;86.36;59917.56;5079878;28;20207;-61
2024/03/22 02:54:57;;;;;;;16.77;11.50;;;7.70;99.90;;;-141.84;85.01;51778.88;5084932;28;20235;-61
2024/03/22 02:57:24;;;;;;;16.03;10.60;;;7.80;99.90;;;-141.84;84.67;49157.03;5081061;28;20696;-61
2024/03/22 02:59:52;;;;;;;20.73;12.20;;;7.70;99.90;;;-141.84;86.45;59129.22;5085976;28;20215;-61
2024/03/22 03:02:19;;;;;;;16.77;11.30;;;7.70;99.90;;;-141.84;86.14;60180.38;5086040;28;20318;-61
2024/03/22 03:04:46;;;;;;;17.63;11.43;;;7.70;99.90;;;-141.84;85.75;55189.84;5086406;28;20199;-60
2024/03/22 03:07:12;;;;;;;18.53;11.07;;;7.70;99.90;;;-141.84;86.04;58603.75;5083112;28;20215;-60
2024/03/22 03:09:39;;;;;;;17.70;12.00;;;7.70;99.90;;;-141.84;85.13;53615.19;5083436;28;20216;-62
2024/03/22 03:12:06;;;;;;;15.67;11.53;;;7.60;99.90;;;-141.84;85.85;57290.34;5099843;27;20226;-61
2024/03/22 03:14:34;;;;;;;17.83;11.63;;;7.60;99.90;;;-141.84;85.95;57815.66;5114956;27;20233;-60
2024/03/22 03:17:01;;;;;;;18.07;11.47;;;7.60;99.90;;;-141.84;86.34;59917.56;5111863;28;20200;-61
2024/03/22 03:19:29;;;;;;;18.63;12.10;;;7.60;99.90;;;-141.84;84.22;48894.97;5111853;28;20195;-61
2024/03/22 03:21:55;;;;;;;15.73;11.90;;;7.60;99.90;;;-141.84;83.08;37674.34;5113659;27;20231;-61
2024/03/22 03:24:22;;;;;;;16.17;11.17;;;7.70;99.90;;;-141.84;81.13;28397.81;5115176;27;20214;-60
2024/03/22 03:26:48;;;;;;;15.93;10.60;;;7.70;99.90;;;-141.84;80.16;23473.81;5114934;27;20222;-60
2024/03/22 03:29:16;;;;;;;15.60;11.47;;;7.70;99.90;;;-141.84;81.17;25972.69;5111605;27;20199;-60
2024/03/22 03:31:42;;;;;;;17.63;11.10;;;7.80;99.90;;;-141.84;82.27;32249.31;5111723;28;20625;-61
2024/03/22 03:34:11;;;;;;;16.77;10.60;;;7.80;99.90;;;-141.84;82.17;33168.94;5110992;28;20246;-61
2024/03/22 03:36:37;;;;;;;15.90;11.07;;;7.80;99.90;;;-141.84;82.97;36804.69;5113092;27;20222;-60
2024/03/22 03:39:05;;;;;;;16.03;11.17;;;7.80;99.90;;;-141.84;83.95;45751.28;5114667;27;20221;-60
2024/03/22 03:41:31;;;;;;;16.43;10.47;;;7.80;99.90;;;-141.84;83.55;42086.81;5114697;27;20271;-61
2024/03/22 03:43:59;;;;;;;16.33;11.23;;;7.70;99.90;;;-141.84;84.18;46275.03;5114751;27;20206;-59
2024/03/22 03:46:26;;;;;;;16.07;10.93;;;7.70;99.90;;;-141.84;82.46;36612.81;5112080;28;20664;-60
2024/03/22 03:48:53;;;;;;;14.47;10.17;;;7.70;99.90;;;-141.84;81.72;28004.72;5110858;28;20219;-61
2024/03/22 03:51:21;;;;;;;15.07;10.53;;;7.70;99.90;;;-141.84;82.46;34411.06;5113219;27;20563;-62
2024/03/22 03:53:48;;;;;;;14.97;10.20;;;7.60;99.90;;;-141.84;83.31;40047.47;5107402;27;20582;-62
2024/03/22 03:56:15;;;;;;;16.73;11.23;;;7.70;99.90;;;-141.84;81.75;33503.41;5121698;27;20195;-60
2024/03/22 03:58:42;;;;;;;17.07;10.83;;;7.70;99.90;;;-141.84;81.37;27931.41;5114943;27;20252;-60
2024/03/22 04:01:09;;;;;;;15.97;10.50;;;7.70;99.90;;;-141.84;82.08;32771.28;5114463;27;20214;-60
2024/03/22 04:03:36;;;;;;;16.33;11.03;;;7.70;99.90;;;-141.84;80.92;26534.53;5114006;27;20210;-60
2024/03/22 04:06:03;;;;;;;13.87;9.93;;;7.80;99.90;;;-141.84;80.67;24948.94;5113564;27;20595;-60
2024/03/22 04:08:33;;;;;;;14.53;10.10;;;7.80;99.90;;;-141.84;81.61;29288.00;5109779;28;20223;-61
2024/03/22 04:10:59;;;;;;;13.87;9.63;;;7.80;99.90;;;-141.84;80.23;23840.00;5111392;27;20693;-61
2024/03/22 04:13:28;;;;;;;15.23;9.80;;;7.80;99.90;;;-141.84;79.61;22145.66;5112957;27;20602;-61
2024/03/22 04:15:58;;;;;;;15.07;10.57;;;7.80;99.90;;;-141.84;81.87;28613.72;5114206;27;20268;-62
2024/03/22 04:18:25;;;;;;;18.13;10.57;;;7.80;99.90;;;-141.84;82.90;37474.25;5114087;27;20710;-60
2024/03/22 04:20:55;;;;;;;14.33;10.30;;;7.80;99.90;;;-141.84;83.15;40233.38;5105959;27;20222;-60
2024/03/22 04:23:23;;;;;;;13.50;9.50;;;7.80;99.90;;;-141.84;81.73;29508.03;5110239;27;20219;-62
2024/03/22 04:25:56;;;;;;;13.73;10.13;;;7.80;99.90;;;-141.84;81.19;27621.84;5112058;27;20204;-61
2024/03/22 04:28:24;;;;;;;13.47;9.90;;;7.80;99.90;;;-141.84;79.59;23030.34;5113139;27;20428;-61
2024/03/22 04:30:59;;;;;;;12.83;9.33;;;7.80;99.90;;;-141.84;77.69;19976.44;5111261;27;20223;-60
2024/03/22 04:33:27;;;;;;;13.20;8.50;;;7.90;99.90;;;-141.84;78.19;20246.75;5113801;27;20218;-60
2024/03/22 04:35:54;;;;;;;12.37;8.70;;;7.90;99.90;;;-141.84;80.38;23768.78;5062874;27;20223;-60
2024/03/22 04:38:21;;;;;;;15.70;9.57;;;7.90;99.90;;;-141.84;78.53;20519.13;5110290;28;20215;-60
2024/03/22 04:40:48;;;;;;;13.10;8.93;;;7.90;99.90;;;-141.84;79.35;22066.34;5112888;27;20432;-60
2024/03/22 04:43:17;;;;;;;11.30;8.90;;;7.80;99.90;;;-141.84;77.18;19541.50;5113522;27;20218;-61
2024/03/22 04:45:45;;;;;;;11.57;9.07;;;7.90;99.90;;;-141.84;77.58;19720.34;5113736;27;20214;-60
2024/03/22 04:48:14;;;;;;;13.20;8.97;;;7.90;99.90;;;-141.84;80.57;24403.56;5112650;27;20222;-62
2024/03/22 04:50:42;;;;;;;11.30;7.90;;;7.80;99.90;;;-141.84;81.10;27607.59;5108091;27;20218;-60
2024/03/22 04:53:08;;;;;;;10.40;7.67;;;7.90;99.90;;;-141.84;77.83;20248.78;5113968;27;20210;-61
2024/03/22 04:55:35;;;;;;;13.87;8.20;;;7.90;99.90;;;-141.84;78.38;20289.44;5113468;27;20230;-60
2024/03/22 04:58:02;;;;;;;9.37;7.07;;;8.00;99.90;;;-141.84;77.14;19527.28;5109602;28;20215;-61
2024/03/22 05:00:30;;;;;;;9.40;7.33;;;8.00;99.90;;;-141.84;77.48;19978.47;5110934;27;20211;-62
2024/03/22 05:02:57;;;;;;;9.80;7.20;;;7.90;99.90;;;-141.84;77.85;19966.28;5104893;27;20263;-62
2024/03/22 05:05:24;;;;;;;10.03;7.53;;;7.90;99.90;;;-141.84;80.64;23545.00;5112962;27;20242;-62
2024/03/22 05:07:50;;;;;;;9.17;7.20;;;7.90;99.90;;;-141.84;79.93;23404.63;5109851;28;20264;-60
2024/03/22 05:10:18;;;;;;;9.60;7.10;;;7.90;99.90;;;-141.84;78.04;20104.47;5111661;27;20219;-61
2024/03/22 05:12:45;;;;;;;10.60;7.27;;;7.90;99.90;;;-141.84;77.58;20037.41;5112550;27;20709;-61
2024/03/22 05:15:11;;;;;;;9.10;6.63;;;7.90;99.90;;;-141.84;76.63;19297.66;5112637;27;20565;-61
2024/03/22 05:17:41;;;;;;;11.50;6.77;;;8.00;99.90;;;-141.84;76.06;19082.25;5112797;27;20622;-61
2024/03/22 05:20:10;;;;;;;9.73;7.40;;;8.00;99.90;;;-141.84;75.01;18911.56;5109130;28;20203;-62
2024/03/22 05:22:38;;;;;;;9.13;6.73;;;8.00;99.90;;;-141.84;74.78;18901.41;5111742;27;20323;-61
2024/03/22 05:25:05;;;;;;;8.50;6.53;;;8.00;99.90;;;-141.84;77.52;19679.72;5112395;27;20764;-61
2024/03/22 05:27:33;;;;;;;10.37;7.30;;;8.00;99.90;;;-141.84;77.52;19756.94;5112589;27;20596;-60
2024/03/22 05:29:59;;;;;;;8.23;6.87;;;8.00;99.90;;;-141.84;78.38;20517.09;5109075;27;20223;-60
2024/03/22 05:32:27;;;;;;;8.50;6.67;;;7.90;99.90;;;-141.84;77.30;19663.44;5112196;27;20287;-60
2024/03/22 05:34:55;;;;;;;7.73;6.13;;;8.00;99.90;;;-141.84;76.47;19311.88;5112779;27;20747;-61
2024/03/22 05:37:22;;;;;;;8.20;6.27;;;8.00;99.90;;;-141.84;77.31;19488.69;5112262;27;20215;-61
2024/03/22 05:39:49;;;;;;;10.20;6.93;;;8.00;99.90;;;-141.84;78.66;21405.50;5112075;27;20211;-60
2024/03/22 05:42:16;;;;;;;7.40;6.13;;;8.00;99.90;;;-141.84;77.95;20202.03;5112029;27;20213;-60
2024/03/22 05:44:44;;;;;;;7.63;6.23;;;8.10;99.90;;;-141.84;78.01;20240.66;5112148;27;20222;-61
2024/03/22 05:47:11;;;;;;;7.23;6.20;;;8.10;99.90;;;-141.84;78.11;20263.00;5112296;27;20248;-63
2024/03/22 05:49:37;;;;;;;8.07;6.60;;;8.10;99.90;;;-141.84;78.00;20277.25;5111413;27;20203;-62
2024/03/22 05:52:06;;;;;;;7.90;6.90;;;8.20;99.90;;;-141.84;76.72;19500.88;5108761;28;20227;-65
2024/03/22 05:54:33;;;;;;;11.40;6.87;;;8.20;99.90;;;-141.84;75.29;19047.72;5110135;27;20280;-62
2024/03/22 05:57:00;;;;;;;9.33;6.90;;;8.20;99.90;;;-141.84;75.24;18946.13;5108628;28;20219;-61
2024/03/22 05:59:27;;;;;;;11.20;7.33;;;8.30;99.90;;;-141.84;72.34;18673.84;5108988;27;20394;-61
2024/03/22 06:01:54;;;;;;;8.53;6.40;;;8.40;99.90;;;-141.84;72.41;18710.44;5105684;27;20216;-61
2024/03/22 06:04:21;;;;;;;7.87;6.13;;;8.50;99.90;;;-141.84;73.73;18834.38;5105586;28;20249;-61
2024/03/22 06:06:48;;;;;;;9.47;6.43;;;8.50;99.90;;;-141.84;73.33;18799.81;5109482;27;20221;-61
2024/03/22 06:09:23;;;;;;;7.53;6.67;;;8.50;99.90;;;-141.84;73.63;18818.09;5111622;27;20287;-61
2024/03/22 06:11:51;;;;;;;10.07;7.17;;;8.60;99.90;;;-141.84;72.62;18738.88;5111556;27;20229;-60
2024/03/22 06:14:17;;;;;;;9.80;7.20;;;8.60;99.90;;;-141.84;70.47;18649.47;5111218;28;20222;-60
2024/03/22 06:16:45;;;;;;;6.90;6.20;;;8.70;99.90;;;-141.84;71.29;18684.00;5112068;27;20677;-63
2024/03/22 06:19:11;;;;;;;8.53;6.87;;;8.70;99.90;;;-141.84;70.55;18696.19;5111241;28;20218;-61
2024/03/22 06:21:38;;;;;;;8.33;6.53;;;8.80;99.90;;;-141.84;70.29;18665.72;5109797;28;20215;-61
2024/03/22 06:24:05;;;;;;;12.27;6.43;;;8.90;99.90;;;-141.84;68.43;18649.47;5108804;27;20218;-60
2024/03/22 06:26:34;;;;;;;10.03;7.07;;;8.90;99.90;;;-141.84;68.60;18643.38;5111413;28;20214;-60
2024/03/22 06:29:00;;;;;;;9.20;6.63;;;9.10;99.90;;;-141.84;66.68;18625.09;5106872;28;20678;-60
2024/03/22 06:31:27;;;;;;;10.77;8.43;;;9.10;99.90;;;-141.84;66.61;18635.25;5111550;28;20195;-61
2024/03/22 06:33:54;;;;;;;9.07;6.33;;;9.20;99.90;;;-141.84;66.44;18651.50;5111358;28;20218;-61
2024/03/22 06:36:22;;;;;;;9.40;6.63;;;9.40;99.90;;;-141.84;63.70;18663.69;5110851;28;20233;-61
2024/03/22 06:38:48;;;;;;;9.47;6.73;;;9.60;99.90;;;-141.84;64.04;18647.44;5111565;28;20245;-62
2024/03/22 06:41:15;;;;;;;8.80;6.50;;;9.60;99.90;;;-141.84;64.01;18655.56;5111385;28;20194;-61
2024/03/22 06:43:43;;;;;;;7.60;6.17;;;9.50;99.90;;;-141.84;64.60;18684.00;5111556;28;20203;-62
2024/03/22 06:46:11;;;;;;;13.57;6.77;;;9.60;99.90;;;-141.84;63.71;18706.38;5111296;28;20293;-60
2024/03/22 06:48:37;;;;;;;8.67;6.23;;;9.80;99.90;;;-141.84;61.86;18684.00;5110923;28;20698;-60
2024/03/22 06:51:05;;;;;;;9.40;6.10;;;9.80;99.90;;;-141.84;61.10;18726.69;5111120;28;20245;-61
2024/03/22 06:53:31;;;;;;;10.53;6.73;;;10.00;99.90;;;-141.84;60.80;18736.84;5111198;28;20218;-61
2024/03/22 06:55:58;;;;;;;9.00;6.63;;;10.10;99.90;;;-141.84;60.92;18708.41;5111091;28;20717;-60
2024/03/22 06:58:25;;;;;;;12.53;7.33;;;10.10;99.90;;;-141.84;61.53;18710.44;5111196;28;20210;-61
2024/03/22 07:00:53;;;;;;;10.30;6.60;;;10.10;99.90;;;-141.84;60.50;18720.59;5110813;28;20629;-61
2024/03/22 07:03:20;;;;;;;10.43;7.10;;;10.20;99.90;;;-141.84;59.50;18742.94;5111071;28;20214;-61
2024/03/22 07:05:47;;;;;;;11.33;7.20;;;10.30;99.90;;;-141.84;60.08;18738.88;5103273;28;20272;-62
2024/03/22 07:08:15;;;;;;;10.37;8.10;;;10.40;99.90;;;-141.84;59.17;18749.03;5111261;28;20651;-60
2024/03/22 07:10:41;;;;;;;10.97;6.83;;;10.50;99.90;;;-141.84;59.53;18736.84;5111740;28;20203;-59
2024/03/22 07:13:09;;;;;;;9.90;7.30;;;10.40;99.90;;;-141.84;60.51;18724.66;5111254;28;20290;-60
2024/03/22 07:15:35;;;;;;;10.03;7.47;;;10.40;99.90;;;-141.84;61.02;18740.91;5111130;28;20576;-60
2024/03/22 07:18:04;;;;;;;11.17;7.87;;;10.30;99.90;;;-141.84;60.81;18712.47;5110052;28;20218;-61
2024/03/22 07:20:31;;;;;;;10.73;7.03;;;10.30;99.90;;;-141.84;60.31;18744.97;5111400;28;20694;-61
2024/03/22 07:22:58;;;;;;;9.43;7.53;;;10.40;99.90;;;-141.84;61.15;18740.91;5107956;28;20229;-61
2024/03/22 07:25:24;;;;;;;11.73;7.77;;;10.40;99.90;;;-141.84;60.80;18718.56;5107995;28;20351;-61
2024/03/22 07:27:52;;;;;;;11.47;7.37;;;10.40;99.90;;;-141.84;60.89;18753.09;5110909;28;20219;-60
2024/03/22 07:30:18;;;;;;;11.40;7.57;;;10.40;99.90;;;-141.84;61.16;18761.22;5111153;28;20215;-61
2024/03/22 07:32:48;;;;;;;12.73;8.23;;;10.40;99.90;;;-141.84;60.25;18738.88;5111148;28;20211;-61
2024/03/22 07:35:15;;;;;;;11.90;7.83;;;10.40;99.90;;;-141.84;59.96;18773.41;5110950;28;20636;-60
2024/03/22 07:37:43;;;;;;;12.83;9.00;;;10.50;99.90;;;-141.84;59.86;18753.09;5111814;28;20199;-61
2024/03/22 07:40:10;;;;;;;12.60;8.43;;;10.60;99.90;;;-141.84;60.44;18773.41;5110719;28;20223;-61
2024/03/22 07:42:37;;;;;;;11.63;8.83;;;10.60;99.90;;;-141.84;59.74;18785.59;5110705;27;20215;-62
2024/03/22 07:45:04;;;;;;;12.27;8.77;;;10.80;99.90;;;-141.84;59.82;18753.09;5106588;27;20234;-62
2024/03/22 07:47:32;;;;;;;11.93;8.37;;;10.70;99.90;;;-141.84;58.68;18785.59;5114433;27;20223;-60
2024/03/22 07:49:58;;;;;;;12.13;8.90;;;10.90;99.90;;;-141.84;58.82;18795.75;5114862;27;20567;-60
2024/03/22 07:52:27;;;;;;;11.57;8.13;;;11.00;99.90;;;-141.84;58.84;18809.97;5115557;27;20186;-61
2024/03/22 07:54:53;;;;;;;13.57;8.67;;;11.10;99.90;;;-141.84;58.88;18809.97;5106405;27;20653;-61
2024/03/22 07:57:21;;;;;;;11.27;9.10;;;11.10;99.90;;;-141.84;57.67;18838.44;5114633;27;20651;-61
2024/03/22 07:59:47;;;;;;;14.17;9.37;;;11.30;99.90;;;-141.84;57.65;18832.34;5114682;27;20218;-62
2024/03/22 08:02:14;;;;;;;12.73;8.73;;;11.50;99.90;;;-141.84;56.58;18838.44;5114472;27;20198;-61
2024/03/22 08:04:41;;;;;;;12.93;8.97;;;11.60;99.90;;;-141.84;55.97;18846.56;5107508;27;20583;-61
2024/03/22 08:07:08;;;;;;;12.17;9.10;;;11.70;99.90;;;-141.84;56.46;18858.75;5114339;27;20221;-61
2024/03/22 08:09:36;;;;;;;12.63;9.17;;;11.80;99.90;;;-141.84;56.51;18877.03;5114212;27;20766;-61
2024/03/22 08:12:04;;;;;;;15.00;10.40;;;11.80;99.90;;;-141.84;55.94;18856.72;5113897;27;20230;-61
2024/03/22 08:14:30;;;;;;;17.00;9.90;;;11.70;99.90;;;-141.84;56.39;18877.03;5114646;27;20218;-61
2024/03/22 08:16:58;;;;;;;13.43;10.20;;;11.70;99.90;;;-141.84;57.02;18852.66;5113196;27;20647;-62
2024/03/22 08:19:24;;;;;;;17.23;10.07;;;11.70;99.90;;;-141.84;57.27;18864.84;5114482;27;20194;-62
2024/03/22 08:21:51;;;;;;;13.50;10.17;;;11.70;99.90;;;-141.84;56.54;18868.91;5113765;27;20527;-61
2024/03/22 08:24:19;;;;;;;15.53;10.50;;;11.80;99.90;;;-141.84;55.79;18879.06;5106870;27;20218;-61
2024/03/22 08:26:47;;;;;;;18.07;11.50;;;11.90;99.90;;;-141.84;55.87;18862.81;5113651;27;20646;-61
2024/03/22 08:29:14;;;;;;;16.77;10.87;;;12.00;99.90;;;-141.84;55.78;18909.53;5113992;27;20243;-61
2024/03/22 08:31:42;;;;;;;17.17;11.57;;;12.10;99.90;;;-141.84;56.43;18893.28;5114079;27;20598;-61
2024/03/22 08:34:09;;;;;;;15.13;11.10;;;12.10;99.90;;;-141.84;55.02;18899.38;5113375;27;20351;-61
2024/03/22 08:36:36;;;;;;;17.00;11.50;;;12.20;99.90;;;-141.84;55.42;18891.25;5113613;27;20371;-61
2024/03/22 08:39:03;;;;;;;15.80;10.87;;;12.10;99.90;;;-141.84;55.21;18885.16;5113317;27;20211;-61
2024/03/22 08:41:30;;;;;;;20.47;12.03;;;12.20;99.90;;;-141.84;54.67;18933.94;5113530;27;20267;-60
2024/03/22 08:43:58;;;;;;;17.30;12.17;;;12.30;99.90;;;-141.84;54.19;18923.78;5113709;27;20393;-61
2024/03/22 08:46:26;;;;;;;17.93;11.83;;;12.40;99.90;;;-141.84;53.99;18946.13;5114236;27;20195;-61
2024/03/22 08:48:55;;;;;;;19.07;12.97;;;12.60;99.90;;;-141.84;52.60;19019.28;5112947;27;20219;-61
2024/03/22 08:51:22;;;;;;;16.57;12.57;;;12.80;99.90;;;-141.84;52.09;19025.38;5112980;27;20226;-61
2024/03/22 08:53:49;;;;;;;17.40;12.45;;;13.00;99.90;;;-141.84;52.38;18980.66;5110437;27;20714;-60
2024/03/22 08:56:16;;;;;;;17.92;12.38;;;13.00;99.90;;;-141.84;52.28;18994.88;5112760;27;20712;-61
2024/03/22 08:58:43;;;;;;;18.17;12.07;;;13.10;99.90;;;-141.84;52.89;18972.53;5113588;27;20210;-61
2024/03/22 09:01:11;;;;;;;16.37;12.07;;;13.10;99.90;;;-141.84;52.99;18998.94;5113292;27;20218;-60
2024/03/22 09:03:39;;;;;;;17.58;12.07;;;12.90;99.90;;;-141.84;53.23;18970.50;5112859;27;20698;-60
2024/03/22 09:06:06;;;;;;;20.07;12.77;;;12.90;99.90;;;-141.84;53.20;18984.72;5106597;27;20218;-61
2024/03/22 09:08:33;;;;;;;15.77;11.33;;;12.90;99.90;;;-141.84;52.18;18994.88;5112615;27;20215;-61
2024/03/22 09:11:01;;;;;;;17.13;12.07;;;13.00;99.90;;;-141.84;52.74;19009.09;5112772;27;20194;-62
2024/03/22 09:13:28;;;;;;;16.40;11.60;;;13.00;99.90;;;-141.84;51.43;19082.25;5083803;28;20215;-61
2024/03/22 09:15:58;;;;;;;18.33;13.27;;;13.10;99.90;;;-141.84;51.31;19039.59;5083411;28;20650;-60
2024/03/22 09:18:26;;;;;;;15.52;12.13;;;13.10;99.90;;;-141.84;50.92;19041.63;5081016;28;20216;-60
2024/03/22 09:20:54;;;;;;;17.70;12.48;;;13.30;99.90;;;-141.84;50.91;19055.84;5081177;28;20247;-60
2024/03/22 09:23:20;;;;;;;17.70;12.18;;;13.40;99.90;;;-141.84;50.26;19086.31;5087762;28;20268;-61
2024/03/22 09:25:48;;;;;;;16.90;12.25;;;13.60;99.90;;;-141.84;50.02;19126.97;5083881;28;20568;-61
2024/03/22 09:28:14;;;;;;;16.33;11.32;;;13.70;99.90;;;-141.84;49.71;19070.06;5083276;28;20230;-60
2024/03/22 09:30:43;;;;;;;16.58;11.05;;;13.80;99.90;;;-141.84;49.77;19116.81;5083393;28;20228;-61
2024/03/22 09:33:09;;;;;;;15.50;10.90;;;13.80;99.90;;;-141.84;49.34;19120.88;5082925;28;20228;-61
2024/03/22 09:35:38;;;;;;;18.23;12.48;;;13.90;99.90;;;-141.84;49.48;19163.53;5083432;28;20297;-62
2024/03/22 09:38:04;;;;;;;15.23;10.70;;;14.00;99.90;;;-141.84;48.96;19187.91;5083469;28;20207;-61
2024/03/22 09:40:32;;;;;;;16.33;10.65;;;14.10;99.90;;;-141.84;48.88;19120.88;5081624;28;20535;-60
2024/03/22 09:43:03;;;;;;;14.63;10.00;;;14.10;99.90;;;-141.84;48.61;19151.34;5080532;28;20722;-60
2024/03/22 09:45:33;;;;;;;14.55;10.65;;;14.20;99.90;;;-141.84;48.12;19171.66;5081019;28;20212;-61
2024/03/22 09:48:00;;;;;;;14.85;10.43;;;14.40;99.90;;;-141.84;48.79;19173.69;5081773;28;20234;-60
2024/03/22 09:50:27;;;;;;;12.90;10.30;;;14.30;99.90;;;-141.84;48.92;19155.41;5080841;28;20220;-60
2024/03/22 09:52:56;;;;;;;14.55;10.50;;;14.30;99.90;;;-141.84;48.62;19165.56;5083305;28;20729;-61
2024/03/22 09:55:26;;;;;;;14.38;9.88;;;14.30;99.90;;;-141.84;49.43;19133.06;5083155;28;20618;-60
2024/03/22 09:57:53;;;;;;;13.15;9.13;;;14.20;99.90;;;-141.84;49.49;19153.38;5082950;28;20219;-60
2024/03/22 10:00:22;;;;;;;13.88;9.77;;;14.20;99.90;;;-141.84;49.21;19141.19;5081970;28;20527;-60